createdAt,value
2022-10-19T00:01:22.756Z,9.75
2022-10-19T00:03:54.242Z,9.79
2022-10-19T00:06:28.518Z,9.70
2022-10-19T00:08:59.332Z,9.80
2022-10-19T00:11:28.733Z,9.89
2022-10-19T00:13:58.252Z,9.90
2022-10-19T00:16:30.450Z,10.02
2022-10-19T00:19:00.648Z,10.06
2022-10-19T00:21:29.353Z,9.98
2022-10-19T00:23:57.688Z,10.08
2022-10-19T00:26:26.222Z,10.08
2022-10-19T00:28:55.873Z,10.06
2022-10-19T00:31:25.395Z,9.87
2022-10-19T00:33:56.599Z,9.84
2022-10-19T00:36:27.767Z,9.92
2022-10-19T00:38:56.469Z,9.96
2022-10-19T00:41:26.483Z,9.88
2022-10-19T00:44:12.034Z,9.76
2022-10-19T00:46:43.717Z,9.63
2022-10-19T00:49:25.374Z,9.79
2022-10-19T00:52:01.647Z,9.93
2022-10-19T00:54:34.900Z,9.99
2022-10-19T00:57:04.238Z,9.98
2022-10-19T00:59:33.298Z,9.92
2022-10-19T01:02:03.559Z,9.96
2022-10-19T01:04:35.064Z,10.01
2022-10-19T01:07:05.404Z,9.96
2022-10-19T01:09:34.970Z,9.94
2022-10-19T01:12:27.914Z,9.94
2022-10-19T01:15:31.305Z,9.98
2022-10-19T01:18:34.886Z,10.06
2022-10-19T01:21:29.932Z,10.08
2022-10-19T01:24:01.112Z,10.03
2022-10-19T01:27:00.521Z,10.01
2022-10-19T01:30:14.034Z,10.07
2022-10-19T01:32:57.857Z,9.98
2022-10-19T01:35:53.439Z,10.05
2022-10-19T01:39:03.295Z,10.07
2022-10-19T01:41:54.364Z,10.05
2022-10-19T01:44:50.583Z,9.95
2022-10-19T01:47:41.512Z,10.05
2022-10-19T01:50:24.729Z,9.95
2022-10-19T01:52:55.555Z,9.66
2022-10-19T01:55:26.424Z,9.56
2022-10-19T01:58:00.626Z,9.64
2022-10-19T02:00:31.322Z,9.71
2022-10-19T02:03:01.137Z,9.73
2022-10-19T02:05:33.104Z,9.80
2022-10-19T02:08:10.863Z,9.77
2022-10-19T02:10:42.328Z,9.71
2022-10-19T02:13:13.916Z,9.68
2022-10-19T02:15:46.605Z,9.61
2022-10-19T02:18:21.308Z,9.46
2022-10-19T02:20:49.853Z,9.52
2022-10-19T02:23:21.495Z,9.60
2022-10-19T02:25:49.957Z,9.56
2022-10-19T02:28:18.665Z,9.52
2022-10-19T02:30:47.600Z,9.56
2022-10-19T02:33:16.392Z,9.55
2022-10-19T02:35:44.974Z,9.51
2022-10-19T02:38:17.021Z,9.53
2022-10-19T02:40:52.256Z,9.30
2022-10-19T02:43:23.195Z,9.45
2022-10-19T02:46:00.384Z,9.52
2022-10-19T02:48:31.936Z,9.46
2022-10-19T02:51:00.522Z,9.18
2022-10-19T02:53:29.340Z,9.10
2022-10-19T02:55:57.377Z,9.14
2022-10-19T02:58:26.067Z,9.37
2022-10-19T03:00:54.971Z,9.49
2022-10-19T03:03:22.990Z,10.43
2022-10-19T03:05:52.273Z,11.05
2022-10-19T03:08:20.533Z,11.47
2022-10-19T03:10:48.773Z,11.76
2022-10-19T03:13:19.882Z,11.91
2022-10-19T03:15:48.190Z,12.01
2022-10-19T03:18:16.626Z,12.21
2022-10-19T03:20:45.053Z,12.44
2022-10-19T03:23:13.241Z,12.48
2022-10-19T03:25:41.622Z,12.40
2022-10-19T03:28:09.560Z,12.39
2022-10-19T03:30:38.119Z,12.38
2022-10-19T03:33:06.427Z,12.52
2022-10-19T03:35:34.503Z,12.53
2022-10-19T03:38:02.715Z,12.55
2022-10-19T03:40:31.382Z,12.39
2022-10-19T03:42:59.325Z,12.25
2022-10-19T03:45:27.736Z,12.27
2022-10-19T03:47:56.137Z,12.17
2022-10-19T03:50:24.970Z,12.07
2022-10-19T03:52:55.004Z,12.03
2022-10-19T03:55:23.379Z,11.95
2022-10-19T03:57:51.768Z,11.89
2022-10-19T04:00:20.355Z,11.74
2022-10-19T04:02:48.678Z,11.64
2022-10-19T04:05:16.793Z,11.48
2022-10-19T04:07:45.104Z,11.25
2022-10-19T04:10:17.498Z,11.26
2022-10-19T04:12:46.406Z,11.17
2022-10-19T04:15:17.021Z,11.24
2022-10-19T04:17:48.543Z,11.44
2022-10-19T04:20:21.332Z,11.48
2022-10-19T04:22:49.444Z,11.68
2022-10-19T04:25:17.889Z,11.80
2022-10-19T04:27:46.263Z,11.99
2022-10-19T04:30:14.420Z,12.06
2022-10-19T04:32:42.759Z,11.81
2022-10-19T04:35:10.845Z,11.52
2022-10-19T04:37:38.995Z,11.10
2022-10-19T04:40:12.829Z,11.13
2022-10-19T04:42:43.632Z,10.88
2022-10-19T04:45:11.939Z,10.79
2022-10-19T04:47:39.956Z,10.78
2022-10-19T04:50:09.892Z,11.00
2022-10-19T04:52:39.419Z,11.44
2022-10-19T04:55:07.798Z,11.71
2022-10-19T04:57:36.632Z,11.91
2022-10-19T05:00:06.146Z,12.06
2022-10-19T05:02:34.173Z,12.14
2022-10-19T05:05:02.537Z,12.19
2022-10-19T05:07:31.123Z,12.14
2022-10-19T05:10:00.775Z,12.10
2022-10-19T05:12:29.073Z,12.06
2022-10-19T05:14:57.397Z,12.01
2022-10-19T05:17:25.530Z,11.99
2022-10-19T05:19:54.224Z,12.02
2022-10-19T05:22:22.657Z,12.03
2022-10-19T05:24:54.492Z,12.00
2022-10-19T05:27:25.918Z,11.98
2022-10-19T05:29:57.015Z,11.92
2022-10-19T05:32:27.025Z,11.89
2022-10-19T05:34:55.257Z,11.85
2022-10-19T05:37:23.300Z,11.82
2022-10-19T05:39:54.818Z,11.82
2022-10-19T05:42:24.867Z,11.76
2022-10-19T05:44:53.188Z,11.72
2022-10-19T05:47:21.353Z,11.77
2022-10-19T05:49:50.043Z,11.81
2022-10-19T05:52:18.520Z,11.90
2022-10-19T05:54:47.261Z,11.94
2022-10-19T05:57:15.443Z,12.00
2022-10-19T05:59:52.579Z,12.06
2022-10-19T06:02:20.987Z,12.16
2022-10-19T06:04:49.356Z,12.27
2022-10-19T06:07:17.584Z,12.38
2022-10-19T06:09:46.611Z,12.54
2022-10-19T06:12:16.316Z,12.62
2022-10-19T06:17:18.461Z,13.25
2022-10-19T06:19:47.508Z,13.44
2022-10-19T06:22:15.532Z,13.57
2022-10-19T06:24:44.139Z,13.64
2022-10-19T06:27:12.382Z,13.75
2022-10-19T06:29:41.019Z,13.87
2022-10-19T06:32:09.424Z,13.89
2022-10-19T06:34:37.600Z,13.95
2022-10-19T06:37:05.754Z,13.96
2022-10-19T06:39:34.678Z,14.00
2022-10-19T06:42:02.891Z,14.11
2022-10-19T06:44:30.979Z,14.18
2022-10-19T06:46:59.452Z,14.34
2022-10-19T06:49:27.948Z,14.37
2022-10-19T06:51:56.210Z,14.47
2022-10-19T06:54:25.635Z,14.53
2022-10-19T06:56:54.104Z,14.60
2022-10-19T06:59:22.620Z,14.63
2022-10-19T07:01:50.897Z,14.70
2022-10-19T07:04:19.051Z,14.83
2022-10-19T07:06:47.388Z,14.86
2022-10-19T07:09:16.317Z,14.89
2022-10-19T07:11:46.064Z,15.06
2022-10-19T07:14:14.869Z,15.13
2022-10-19T07:16:43.223Z,15.24
2022-10-19T07:19:11.911Z,15.28
2022-10-19T07:21:41.789Z,15.39
2022-10-19T07:24:10.416Z,15.58
2022-10-19T07:26:38.589Z,15.53
2022-10-19T07:29:06.680Z,15.68
2022-10-19T07:31:35.643Z,15.68
2022-10-19T07:34:05.002Z,15.79
2022-10-19T07:36:35.973Z,15.92
2022-10-19T07:39:06.521Z,16.01
2022-10-19T07:41:34.949Z,16.15
2022-10-19T07:44:04.003Z,16.34
2022-10-19T07:46:34.019Z,16.39
2022-10-19T07:49:02.996Z,16.52
2022-10-19T07:51:31.118Z,16.76
2022-10-19T07:53:59.794Z,16.80
2022-10-19T07:56:28.593Z,16.89
2022-10-19T07:58:58.678Z,16.99
2022-10-19T08:01:32.605Z,17.23
2022-10-19T08:06:50.191Z,17.98
2022-10-19T08:09:47.272Z,18.52
2022-10-19T08:12:07.273Z,18.67
2022-10-19T08:14:35.716Z,18.67
2022-10-19T08:17:03.759Z,18.97
2022-10-19T08:19:34.044Z,19.25
2022-10-19T08:22:02.465Z,19.81
2022-10-19T08:24:30.536Z,19.90
2022-10-19T08:26:59.168Z,20.17
2022-10-19T08:29:30.689Z,20.41
2022-10-19T08:32:00.307Z,20.83
2022-10-19T08:34:28.676Z,20.32
2022-10-19T08:36:56.718Z,20.69
2022-10-19T08:39:25.126Z,20.83
2022-10-19T08:42:03.651Z,20.65
2022-10-19T08:44:34.943Z,20.76
2022-10-19T08:47:27.556Z,20.56
2022-10-19T08:49:58.799Z,20.77
2022-10-19T08:52:34.099Z,21.15
2022-10-19T08:55:13.995Z,20.99
2022-10-19T08:58:10.339Z,21.04
2022-10-19T09:01:07.507Z,20.97
2022-10-19T09:04:03.209Z,21.11
2022-10-19T09:06:45.048Z,21.59
2022-10-19T09:09:15.023Z,21.25
2022-10-19T09:11:47.503Z,21.49
2022-10-19T09:14:22.282Z,21.78
2022-10-19T09:16:50.353Z,21.93
2022-10-19T09:19:25.940Z,21.80
2022-10-19T09:22:03.902Z,22.62
2022-10-19T09:24:37.458Z,22.43
2022-10-19T09:27:10.899Z,22.47
2022-10-19T09:30:03.848Z,22.63
2022-10-19T09:32:36.294Z,22.79
2022-10-19T09:35:13.917Z,23.00
2022-10-19T09:37:46.902Z,22.80
2022-10-19T09:40:35.156Z,22.07
2022-10-19T09:43:19.687Z,21.78
2022-10-19T09:46:19.834Z,21.58
2022-10-19T09:48:53.617Z,21.81
2022-10-19T09:51:23.757Z,21.82
2022-10-19T09:53:54.660Z,21.81
2022-10-19T09:56:27.884Z,20.99
2022-10-19T09:58:58.698Z,20.61
2022-10-19T10:01:41.733Z,20.68
2022-10-19T10:04:16.819Z,20.69
2022-10-19T10:06:49.961Z,21.22
2022-10-19T10:09:22.654Z,21.22
2022-10-19T10:11:52.007Z,20.93
2022-10-19T10:14:25.189Z,20.73
2022-10-19T10:17:17.647Z,20.86
2022-10-19T10:20:05.916Z,21.11
2022-10-19T10:22:37.227Z,21.19
2022-10-19T10:25:17.011Z,21.32
2022-10-19T10:27:59.390Z,21.28
2022-10-19T10:30:35.114Z,21.47
2022-10-19T10:33:13.274Z,20.99
2022-10-19T10:35:57.931Z,21.55
2022-10-19T10:38:30.862Z,21.30
2022-10-19T10:41:29.125Z,21.16
2022-10-19T10:44:04.939Z,20.94
2022-10-19T10:46:43.723Z,21.20
2022-10-19T10:49:24.471Z,21.10
2022-10-19T10:51:57.267Z,20.80
2022-10-19T10:54:26.531Z,20.86
2022-10-19T10:57:18.762Z,20.95
2022-10-19T11:00:14.118Z,21.35
2022-10-19T11:02:52.368Z,21.94
2022-10-19T11:05:54.459Z,22.30
2022-10-19T11:08:35.448Z,21.81
2022-10-19T11:11:46.670Z,21.57
2022-10-19T11:14:41.569Z,21.14
2022-10-19T11:17:21.070Z,20.80
2022-10-19T11:19:52.232Z,20.32
2022-10-19T11:22:59.354Z,20.09
2022-10-19T11:25:46.207Z,20.41
2022-10-19T11:28:23.335Z,20.07
2022-10-19T11:31:25.083Z,19.73
2022-10-19T11:34:02.581Z,19.91
2022-10-19T11:37:11.923Z,19.78
2022-10-19T11:39:52.136Z,19.82
2022-10-19T11:42:38.625Z,19.37
2022-10-19T11:45:34.571Z,19.28
2022-10-19T11:48:12.155Z,19.37
2022-10-19T11:50:58.883Z,19.34
2022-10-19T11:54:08.965Z,19.13
2022-10-19T11:57:03.600Z,19.13
2022-10-19T11:59:36.447Z,18.93
2022-10-19T12:02:32.741Z,18.86
2022-10-19T12:05:28.095Z,18.79
2022-10-19T12:08:21.239Z,18.61
2022-10-19T12:11:27.796Z,18.68
2022-10-19T12:14:03.778Z,18.59
2022-10-19T12:16:42.951Z,18.39
2022-10-19T12:19:20.454Z,18.34
2022-10-19T12:21:50.820Z,18.49
2022-10-19T12:24:25.243Z,18.53
2022-10-19T12:26:54.478Z,18.45
2022-10-19T12:29:36.513Z,18.57
2022-10-19T12:32:07.420Z,18.58
2022-10-19T12:34:54.565Z,18.53
2022-10-19T12:37:46.187Z,18.40
2022-10-19T12:40:26.552Z,18.44
2022-10-19T12:43:08.967Z,18.51
2022-10-19T12:45:44.024Z,18.53
2022-10-19T12:48:19.289Z,18.56
2022-10-19T12:50:52.471Z,18.48
2022-10-19T12:53:45.409Z,18.34
2022-10-19T12:56:19.595Z,18.34
2022-10-19T12:59:01.534Z,18.17
2022-10-19T13:01:44.341Z,18.28
2022-10-19T13:04:16.266Z,18.26
2022-10-19T13:06:49.486Z,18.31
2022-10-19T13:09:27.809Z,18.13
2022-10-19T13:12:25.653Z,18.25
2022-10-19T13:14:54.653Z,18.21
2022-10-19T13:17:37.726Z,18.03
2022-10-19T13:20:14.820Z,18.06
2022-10-19T13:23:03.623Z,18.02
2022-10-19T13:25:39.770Z,17.97
2022-10-19T13:28:07.908Z,17.96
2022-10-19T13:30:42.082Z,17.93
2022-10-19T13:33:44.999Z,17.72
2022-10-19T13:36:14.056Z,17.77
2022-10-19T13:38:43.778Z,17.80
2022-10-19T13:41:27.783Z,17.74
2022-10-19T13:44:17.010Z,17.61
2022-10-19T13:47:00.206Z,17.63
2022-10-19T13:49:38.055Z,17.59
2022-10-19T13:52:21.539Z,17.55
2022-10-19T13:55:14.841Z,17.53
2022-10-19T13:58:00.441Z,17.51
2022-10-19T14:00:56.218Z,17.44
2022-10-19T14:03:50.819Z,17.40
2022-10-19T14:06:43.514Z,17.22
2022-10-19T14:09:43.212Z,17.12
2022-10-19T14:12:24.307Z,16.94
2022-10-19T14:14:56.110Z,16.89
2022-10-19T14:17:28.646Z,16.80
2022-10-19T14:20:00.113Z,16.73
2022-10-19T14:22:34.057Z,16.74
2022-10-19T14:25:02.552Z,16.74
2022-10-19T14:27:31.483Z,16.70
2022-10-19T14:30:04.501Z,16.60
2022-10-19T14:32:34.470Z,16.51
2022-10-19T14:35:22.436Z,16.63
2022-10-19T14:37:51.200Z,16.51
2022-10-19T14:40:37.688Z,16.48
2022-10-19T14:43:27.344Z,16.45
2022-10-19T14:46:04.911Z,16.40
2022-10-19T14:48:35.109Z,16.29
2022-10-19T14:51:10.178Z,16.06
2022-10-19T14:53:54.877Z,16.17
2022-10-19T14:56:33.020Z,16.09
2022-10-19T14:59:37.167Z,16.02
2022-10-19T15:02:32.854Z,16.03
2022-10-19T15:05:04.581Z,15.83
2022-10-19T15:07:40.171Z,15.73
2022-10-19T15:10:19.412Z,15.76
2022-10-19T15:12:50.437Z,15.67
2022-10-19T15:15:18.866Z,15.52
2022-10-19T15:17:53.783Z,15.52
2022-10-19T15:20:43.756Z,15.46
2022-10-19T15:23:30.552Z,15.31
2022-10-19T15:26:00.793Z,15.29
2022-10-19T15:28:37.462Z,15.16
2022-10-19T15:31:25.514Z,15.05
2022-10-19T15:33:56.607Z,15.05
2022-10-19T15:36:26.697Z,15.04
2022-10-19T15:39:06.198Z,15.00
2022-10-19T15:41:46.477Z,14.93
2022-10-19T15:44:40.940Z,14.74
2022-10-19T15:47:15.949Z,14.54
2022-10-19T15:49:45.864Z,14.38
2022-10-19T15:52:19.334Z,14.35
2022-10-19T15:54:49.052Z,14.34
2022-10-19T15:57:33.374Z,14.45
2022-10-19T16:00:12.883Z,14.36
2022-10-19T16:02:41.613Z,14.30
2022-10-19T16:05:10.169Z,14.20
2022-10-19T16:07:40.378Z,14.10
2022-10-19T16:10:17.926Z,14.10
2022-10-19T16:12:46.288Z,13.98
2022-10-19T16:15:23.177Z,13.82
2022-10-19T16:17:55.237Z,13.81
2022-10-19T16:20:25.962Z,13.78
2022-10-19T16:22:54.672Z,13.74
2022-10-19T16:25:22.940Z,13.70
2022-10-19T16:27:51.623Z,13.66
2022-10-19T16:30:20.139Z,13.77
2022-10-19T16:32:49.611Z,13.64
2022-10-19T16:35:18.173Z,13.58
2022-10-19T16:37:46.364Z,13.63
2022-10-19T16:40:15.822Z,13.57
2022-10-19T16:42:44.444Z,13.52
2022-10-19T16:45:12.987Z,13.53
2022-10-19T16:47:41.333Z,13.65
2022-10-19T16:50:13.652Z,13.50
2022-10-19T16:52:42.024Z,13.41
2022-10-19T16:55:10.605Z,13.42
2022-10-19T16:57:39.071Z,13.38
2022-10-19T17:00:09.672Z,13.48
2022-10-19T17:02:41.850Z,13.37
2022-10-19T17:05:12.464Z,13.37
2022-10-19T17:07:41.273Z,13.32
2022-10-19T17:10:10.035Z,13.27
2022-10-19T17:12:42.920Z,13.36
2022-10-19T17:18:03.259Z,13.31
2022-10-19T17:20:33.476Z,13.27
2022-10-19T17:23:01.606Z,13.23
2022-10-19T17:25:30.182Z,13.13
2022-10-19T17:27:58.772Z,13.12
2022-10-19T17:30:29.411Z,13.03
2022-10-19T17:32:57.996Z,13.01
2022-10-19T17:35:26.716Z,12.97
2022-10-19T17:37:55.189Z,12.99
2022-10-19T17:40:23.787Z,12.90
2022-10-19T17:42:52.400Z,12.98
2022-10-19T17:45:20.779Z,12.91
2022-10-19T17:47:49.289Z,12.94
2022-10-19T17:50:18.228Z,12.85
2022-10-19T17:52:46.857Z,12.53
2022-10-19T17:55:15.362Z,12.48
2022-10-19T17:57:44.248Z,12.48
2022-10-19T18:00:13.498Z,12.47
2022-10-19T18:02:44.906Z,12.42
2022-10-19T18:05:13.126Z,12.29
2022-10-19T18:07:42.779Z,12.23
2022-10-19T18:10:11.620Z,12.17
2022-10-19T18:12:40.532Z,11.99
2022-10-19T18:15:09.206Z,11.92
2022-10-19T18:17:39.892Z,11.92
2022-10-19T18:20:09.611Z,11.82
2022-10-19T18:22:38.376Z,11.81
2022-10-19T18:25:08.757Z,11.80
2022-10-19T18:27:37.435Z,11.75
2022-10-19T18:30:10.218Z,11.71
2022-10-19T18:32:38.704Z,11.68
2022-10-19T18:35:09.026Z,11.73
2022-10-19T18:37:37.609Z,11.70
2022-10-19T18:40:08.036Z,11.64
2022-10-19T18:42:36.654Z,11.57
2022-10-19T18:45:05.691Z,11.59
2022-10-19T18:47:34.095Z,11.57
2022-10-19T18:50:03.534Z,11.43
2022-10-19T18:52:36.530Z,11.50
2022-10-19T18:55:08.236Z,11.44
2022-10-19T18:57:38.167Z,11.44
2022-10-19T19:00:08.000Z,11.44
2022-10-19T19:02:46.476Z,11.44
2022-10-19T19:05:15.955Z,11.27
2022-10-19T19:07:44.220Z,11.41
2022-10-19T19:10:14.503Z,11.10
2022-10-19T19:12:45.005Z,11.01
2022-10-19T19:15:13.153Z,11.02
2022-10-19T19:17:41.518Z,10.96
2022-10-19T19:20:12.545Z,10.91
2022-10-19T19:22:41.639Z,10.83
2022-10-19T19:25:11.570Z,10.64
2022-10-19T19:27:39.919Z,10.49
2022-10-19T19:30:10.786Z,10.38
2022-10-19T19:32:39.148Z,10.38
2022-10-19T19:35:07.714Z,10.46
2022-10-19T19:37:36.620Z,10.55
2022-10-19T19:40:07.787Z,10.51
2022-10-19T19:42:36.871Z,10.46
2022-10-19T19:45:05.646Z,10.42
2022-10-19T19:47:34.750Z,10.29
2022-10-19T19:50:03.893Z,10.27
2022-10-19T19:52:34.884Z,10.20
2022-10-19T19:55:07.107Z,10.12
2022-10-19T19:57:36.099Z,10.23
2022-10-19T20:00:11.126Z,10.19
2022-10-19T20:02:39.699Z,10.21
2022-10-19T20:05:08.632Z,10.26
2022-10-19T20:07:37.167Z,10.28
2022-10-19T20:10:07.852Z,10.34
2022-10-19T20:12:38.847Z,10.47
2022-10-19T20:15:07.371Z,10.44
2022-10-19T20:17:36.394Z,10.49
2022-10-19T20:20:13.339Z,10.53
2022-10-19T20:22:46.544Z,10.59
2022-10-19T20:25:15.295Z,10.55
2022-10-19T20:27:43.932Z,10.51
2022-10-19T20:30:18.552Z,10.51
2022-10-19T20:32:48.075Z,10.28
2022-10-19T20:35:17.209Z,10.02
2022-10-19T20:37:49.899Z,9.94
2022-10-19T20:40:20.269Z,9.99
2022-10-19T20:42:48.617Z,9.93
2022-10-19T20:45:16.641Z,9.89
2022-10-19T20:47:45.568Z,9.84
2022-10-19T20:50:21.840Z,9.82
2022-10-19T20:52:50.473Z,9.77
2022-10-19T20:55:20.519Z,9.64
2022-10-19T20:57:48.855Z,9.58
2022-10-19T21:00:18.614Z,9.57
2022-10-19T21:02:47.166Z,9.59
2022-10-19T21:05:15.357Z,9.62
2022-10-19T21:07:43.725Z,9.64
2022-10-19T21:10:12.045Z,9.41
2022-10-19T21:12:40.056Z,9.55
2022-10-19T21:15:08.782Z,9.58
2022-10-19T21:17:41.481Z,9.57
2022-10-19T21:20:10.435Z,9.59
2022-10-19T21:22:40.191Z,9.46
2022-10-19T21:25:09.477Z,9.42
2022-10-19T21:27:38.197Z,9.48
2022-10-19T21:30:10.444Z,9.42
2022-10-19T21:32:38.945Z,9.45
2022-10-19T21:35:07.342Z,9.33
2022-10-19T21:37:35.615Z,9.06
2022-10-19T21:40:06.593Z,9.06
2022-10-19T21:42:34.601Z,8.98
2022-10-19T21:45:18.375Z,8.95
2022-10-19T21:47:51.826Z,8.97
2022-10-19T21:50:22.007Z,9.10
2022-10-19T21:52:50.003Z,9.08
2022-10-19T21:55:18.431Z,9.29
2022-10-19T21:57:47.010Z,9.35
2022-10-19T22:00:17.062Z,9.46
2022-10-19T22:02:44.931Z,9.48
2022-10-19T22:05:13.408Z,9.59
2022-10-19T22:07:41.672Z,9.56
2022-10-19T22:10:10.490Z,9.63
2022-10-19T22:12:39.325Z,9.62
2022-10-19T22:15:07.769Z,9.65
2022-10-19T22:17:35.816Z,9.52
2022-10-19T22:20:06.610Z,9.30
2022-10-19T22:22:35.036Z,9.34
2022-10-19T22:25:04.148Z,9.01
2022-10-19T22:27:32.356Z,9.14
2022-10-19T22:30:01.991Z,9.23
2022-10-19T22:32:30.430Z,9.30
2022-10-19T22:34:58.826Z,9.25
2022-10-19T22:37:26.832Z,9.35
2022-10-19T22:39:56.199Z,9.29
2022-10-19T22:42:24.411Z,9.13
2022-10-19T22:44:52.487Z,9.14
2022-10-19T22:47:20.816Z,9.16
2022-10-19T22:49:49.974Z,9.24
2022-10-19T22:52:17.987Z,9.14
2022-10-19T22:54:46.350Z,9.10
2022-10-19T22:57:14.813Z,9.01
2022-10-19T22:59:42.959Z,8.83
2022-10-19T23:02:11.347Z,8.76
2022-10-19T23:04:39.561Z,8.70
2022-10-19T23:07:07.731Z,8.77
2022-10-19T23:09:36.699Z,8.59
2022-10-19T23:12:05.719Z,8.27
2022-10-19T23:14:33.793Z,8.37
2022-10-19T23:17:02.133Z,8.57
2022-10-19T23:19:30.498Z,8.55
2022-10-19T23:21:58.514Z,8.51
2022-10-19T23:24:26.835Z,8.54
2022-10-19T23:26:55.318Z,8.37
2022-10-19T23:29:23.776Z,8.39
2022-10-19T23:31:52.113Z,8.33
2022-10-19T23:34:20.963Z,8.37
2022-10-19T23:36:49.203Z,8.30
2022-10-19T23:39:18.235Z,8.18
2022-10-19T23:41:46.538Z,8.16
2022-10-19T23:44:14.803Z,8.10
2022-10-19T23:46:43.153Z,8.15
2022-10-19T23:49:11.336Z,8.24
2022-10-19T23:51:39.721Z,8.21
2022-10-19T23:54:08.257Z,8.13
2022-10-19T23:56:36.404Z,8.30
2022-10-19T23:59:07.735Z,8.40
